Time;durP1;ratioP1;P1;durP2;ratioP2;P2;SDS_P1;SDS_P2;PMS_P1;PMS_P2;Temp;Humidity;BMP_temperature;BMP_pressure;BME280_temperature;BME280_humidity;BME280_pressure;Samples;Min_cycle;Max_cycle;Signal;HPM_P1;HPM_P2
2022/01/18 00:01:23;;;;;;;23.10;15.27;;;7.50;96.70;;;;;;5076157;28;20044;-75
2022/01/18 00:03:51;;;;;;;20.52;14.40;;;7.60;96.70;;;;;;5077932;28;20051;-75
2022/01/18 00:06:19;;;;;;;21.38;14.95;;;7.60;96.70;;;;;;5080312;28;20459;-75
2022/01/18 00:08:48;;;;;;;22.55;15.30;;;7.60;96.70;;;;;;5084981;28;20509;-75
2022/01/18 00:11:18;;;;;;;20.83;14.75;;;7.70;96.70;;;;;;5080391;28;20040;-75
2022/01/18 00:13:55;;;;;;;20.80;16.08;;;7.80;96.70;;;;;;5081895;28;20057;-75
2022/01/18 00:18:59;;;;;;;24.13;16.05;;;7.70;96.70;;;;;;5076218;28;20562;-75
2022/01/18 00:23:59;;;;;;;19.00;13.13;;;7.80;96.70;;;;;;5084053;28;20051;-75
2022/01/18 00:26:30;;;;;;;18.17;12.27;;;7.60;96.70;;;;;;5074499;28;20040;-74
2022/01/18 00:29:04;;;;;;;19.90;12.70;;;7.50;96.70;;;;;;5069805;28;20521;-75
2022/01/18 00:39:19;;;;;;;19.15;12.18;;;7.30;96.70;;;;;;5064314;28;20075;-75
2022/01/18 00:41:47;;;;;;;19.98;13.50;;;7.40;96.70;;;;;;5083943;28;20400;-75
2022/01/18 00:44:16;;;;;;;22.58;13.35;;;7.50;96.70;;;;;;5077122;28;20606;-75
2022/01/18 00:46:45;;;;;;;18.65;13.00;;;7.50;96.70;;;;;;5082735;28;20044;-75
2022/01/18 00:49:15;;;;;;;20.58;13.43;;;7.50;96.70;;;;;;5073102;28;20051;-75
2022/01/18 00:51:49;;;;;;;19.25;12.95;;;7.40;96.70;;;;;;5074133;28;20498;-75
2022/01/18 00:54:22;;;;;;;22.00;14.57;;;7.40;96.70;;;;;;5068685;28;20127;-75
2022/01/18 00:56:53;;;;;;;17.25;12.70;;;7.40;96.70;;;;;;5073768;28;20089;-75
2022/01/18 00:59:22;;;;;;;23.88;14.18;;;7.40;96.70;;;;;;5092835;28;20052;-75
2022/01/18 01:01:52;;;;;;;20.75;14.00;;;7.40;96.70;;;;;;5078207;28;20063;-75
2022/01/18 01:04:23;;;;;;;20.08;13.68;;;7.30;96.70;;;;;;5070642;28;20069;-74
2022/01/18 01:06:51;;;;;;;20.50;13.68;;;7.40;96.70;;;;;;5063949;28;20036;-75
2022/01/18 01:09:19;;;;;;;19.55;13.60;;;7.50;96.70;;;;;;5072924;28;20033;-75
2022/01/18 01:11:48;;;;;;;25.05;16.23;;;7.40;96.70;;;;;;5078060;28;20036;-75
2022/01/18 01:14:20;;;;;;;22.98;15.98;;;7.60;96.70;;;;;;5072624;28;20036;-74
2022/01/18 01:46:40;;;;;;;23.77;14.65;;;7.80;96.70;;;;;;5074361;28;20051;-75
2022/01/18 01:49:13;;;;;;;21.15;14.95;;;7.90;96.70;;;;;;5083495;28;20535;-75
2022/01/18 01:51:42;;;;;;;20.02;14.82;;;7.70;96.70;;;;;;5069140;28;20041;-75
2022/01/18 01:54:11;;;;;;;23.13;14.55;;;7.30;96.70;;;;;;5073283;28;20089;-75
2022/01/18 01:56:40;;;;;;;22.15;15.45;;;7.40;96.70;;;;;;5069893;28;20059;-74
2022/01/18 01:59:10;;;;;;;23.25;15.73;;;7.50;96.70;;;;;;5069677;28;20498;-75
2022/01/18 02:01:44;;;;;;;24.48;15.77;;;7.50;96.70;;;;;;5065575;28;20492;-75
2022/01/18 02:04:15;;;;;;;20.65;14.63;;;7.30;96.70;;;;;;5076401;28;20379;-75
2022/01/18 02:06:43;;;;;;;21.48;14.77;;;7.40;96.70;;;;;;5078090;28;20040;-75
2022/01/18 02:09:11;;;;;;;21.40;15.02;;;7.50;96.70;;;;;;5067881;28;20045;-75
2022/01/18 02:11:40;;;;;;;19.15;14.45;;;7.50;96.70;;;;;;5074555;28;20087;-74
2022/01/18 02:14:14;;;;;;;22.33;15.15;;;7.50;96.70;;;;;;5070533;28;20506;-75
2022/01/18 02:22:19;;;;;;;22.90;15.13;;;7.70;96.70;;;;;;5077315;28;20048;-75
2022/01/18 02:24:47;;;;;;;21.70;15.60;;;7.70;96.70;;;;;;5073066;28;20044;-75
2022/01/18 02:27:16;;;;;;;21.85;15.57;;;7.80;96.70;;;;;;5076602;28;20048;-75
2022/01/18 02:29:44;;;;;;;22.15;15.93;;;7.80;96.70;;;;;;5078808;28;20395;-75
2022/01/18 02:32:14;;;;;;;20.25;15.20;;;7.80;96.70;;;;;;5073625;28;20037;-75
2022/01/18 02:34:43;;;;;;;19.52;14.10;;;7.70;96.70;;;;;;5076509;28;20051;-75
2022/01/18 02:37:14;;;;;;;22.52;15.00;;;7.60;96.70;;;;;;5071811;28;20074;-75
2022/01/18 02:39:43;;;;;;;21.63;14.65;;;7.70;96.70;;;;;;5058903;28;20300;-75
2022/01/18 02:42:15;;;;;;;20.60;14.25;;;7.60;96.70;;;;;;5088615;28;20074;-74
2022/01/18 02:44:43;;;;;;;21.42;14.95;;;7.70;96.70;;;;;;5072244;28;20056;-75
2022/01/18 02:47:13;;;;;;;19.88;15.35;;;7.80;96.70;;;;;;5082817;28;20040;-75
2022/01/18 02:49:41;;;;;;;20.38;14.27;;;7.80;96.70;;;;;;5081193;28;20051;-75
2022/01/18 02:52:10;;;;;;;19.50;14.57;;;7.80;96.70;;;;;;5084686;28;20109;-75
2022/01/18 02:54:38;;;;;;;20.98;14.57;;;7.70;96.70;;;;;;5080698;28;20059;-75
2022/01/18 02:57:13;;;;;;;22.15;15.13;;;7.80;96.70;;;;;;5077519;28;20382;-75
2022/01/18 03:00:06;;;;;;;21.48;14.43;;;7.60;96.70;;;;;;5076467;28;20634;-75
2022/01/18 03:05:21;;;;;;;23.98;15.02;;;7.70;96.70;;;;;;5078543;28;20052;-74
2022/01/18 03:07:49;;;;;;;19.27;14.45;;;7.80;96.70;;;;;;5071944;28;20040;-75
2022/01/18 03:10:18;;;;;;;17.48;12.60;;;7.80;96.70;;;;;;5079661;28;20051;-75
2022/01/18 03:12:48;;;;;;;17.30;12.98;;;7.90;96.70;;;;;;5071971;28;20577;-74
2022/01/18 03:15:17;;;;;;;19.80;13.55;;;7.80;96.70;;;;;;5076607;28;20068;-75
2022/01/18 03:17:45;;;;;;;18.88;13.05;;;7.80;96.70;;;;;;5056284;28;20061;-75
2022/01/18 03:20:16;;;;;;;20.88;14.02;;;7.80;96.70;;;;;;5072696;28;20063;-75
2022/01/18 03:22:46;;;;;;;18.30;13.13;;;7.80;96.70;;;;;;5077995;28;20048;-74
2022/01/18 03:30:31;;;;;;;16.65;12.85;;;7.70;96.70;;;;;;5097755;27;20075;-75
2022/01/18 03:32:59;;;;;;;20.83;14.20;;;7.50;96.70;;;;;;5080724;28;20033;-75
2022/01/18 03:35:27;;;;;;;18.35;13.30;;;7.50;96.70;;;;;;5075574;28;20044;-75
2022/01/18 03:37:56;;;;;;;17.95;12.70;;;7.70;96.70;;;;;;5077018;28;20501;-75
2022/01/18 03:40:25;;;;;;;20.55;13.18;;;7.70;96.70;;;;;;5076865;28;20040;-75
2022/01/18 03:42:54;;;;;;;18.67;12.73;;;7.60;96.70;;;;;;5076776;28;20044;-75
2022/01/18 03:45:28;;;;;;;17.02;12.38;;;7.50;96.70;;;;;;5068200;28;20799;-75
2022/01/18 03:48:00;;;;;;;18.52;12.15;;;7.60;96.70;;;;;;5070935;28;20623;-75
2022/01/18 03:50:28;;;;;;;17.95;13.63;;;7.60;96.70;;;;;;5079467;28;20070;-75
2022/01/18 03:52:56;;;;;;;18.52;12.73;;;7.70;96.70;;;;;;5076564;28;20036;-75
2022/01/18 03:55:25;;;;;;;16.70;12.73;;;7.70;96.70;;;;;;5078714;28;20086;-75
2022/01/18 03:57:53;;;;;;;15.60;12.63;;;7.70;96.70;;;;;;5079596;28;20032;-75
2022/01/18 04:00:25;;;;;;;22.30;14.05;;;7.60;96.70;;;;;;5078172;28;20406;-74
2022/01/18 04:02:54;;;;;;;19.83;13.68;;;7.70;96.70;;;;;;5075994;28;20044;-75
2022/01/18 04:05:25;;;;;;;20.48;14.13;;;7.70;96.70;;;;;;5070605;28;20048;-75
2022/01/18 04:07:53;;;;;;;18.33;13.05;;;7.70;96.70;;;;;;5072588;28;20445;-75
2022/01/18 04:10:21;;;;;;;19.25;12.55;;;7.70;96.70;;;;;;5074386;28;20090;-74
2022/01/18 04:12:49;;;;;;;17.42;13.00;;;7.70;96.70;;;;;;5075765;28;20032;-75
2022/01/18 04:15:18;;;;;;;21.33;12.90;;;7.70;96.70;;;;;;5078721;28;20747;-75
2022/01/18 04:18:04;;;;;;;18.27;11.77;;;7.70;96.70;;;;;;5083598;28;20528;-75
2022/01/18 04:28:54;;;;;;;18.70;12.82;;;7.40;96.70;;;;;;5078922;28;20043;-75
2022/01/18 04:31:23;;;;;;;16.05;11.38;;;7.40;96.70;;;;;;5078980;28;20040;-75
2022/01/18 04:33:52;;;;;;;16.52;11.65;;;7.50;96.70;;;;;;5079478;28;20547;-75
2022/01/18 04:36:22;;;;;;;16.02;12.18;;;7.50;96.70;;;;;;5078457;28;20123;-75
2022/01/18 04:38:50;;;;;;;16.48;11.77;;;7.50;96.70;;;;;;5073001;28;20050;-74
2022/01/18 04:41:25;;;;;;;18.13;11.27;;;7.50;96.70;;;;;;5076735;28;20048;-75
2022/01/18 04:49:16;;;;;;;18.73;11.15;;;7.40;96.70;;;;;;5079723;28;20040;-75
2022/01/18 04:51:46;;;;;;;17.73;10.50;;;7.40;96.70;;;;;;5072626;28;20051;-75
2022/01/18 04:54:16;;;;;;;14.10;9.98;;;7.40;96.70;;;;;;5068077;28;20462;-75
2022/01/18 04:59:14;;;;;;;15.52;9.95;;;7.30;96.70;;;;;;5067503;28;20040;-74
2022/01/18 05:01:45;;;;;;;17.63;10.18;;;7.30;96.70;;;;;;5082451;28;20032;-74
2022/01/18 05:04:14;;;;;;;15.05;9.57;;;7.20;96.70;;;;;;5081940;28;20044;-74
2022/01/18 05:06:44;;;;;;;11.32;8.45;;;7.20;96.70;;;;;;5074255;28;20528;-75
2022/01/18 05:09:13;;;;;;;12.43;8.30;;;7.10;96.70;;;;;;5070242;28;20213;-75
2022/01/18 05:11:50;;;;;;;12.85;8.00;;;7.10;96.70;;;;;;5062555;28;20139;-74
2022/01/18 05:14:33;;;;;;;11.43;7.50;;;7.10;96.70;;;;;;5079205;28;20043;-75
2022/01/18 05:19:45;;;;;;;10.93;7.13;;;7.10;96.70;;;;;;5079884;28;20051;-75
2022/01/18 05:25:02;;;;;;;9.95;6.93;;;7.10;96.70;;;;;;5075243;28;20036;-75
2022/01/18 05:27:30;;;;;;;9.00;6.68;;;7.00;96.70;;;;;;5072188;28;20036;-74
2022/01/18 05:29:58;;;;;;;9.45;6.53;;;7.00;96.70;;;;;;5071137;28;20139;-74
2022/01/18 05:32:26;;;;;;;11.27;6.68;;;7.00;96.70;;;;;;5076704;28;20072;-75
2022/01/18 05:34:54;;;;;;;11.38;6.90;;;6.90;96.70;;;;;;5069933;28;20060;-75
2022/01/18 05:37:23;;;;;;;9.30;6.22;;;6.90;96.70;;;;;;5075994;28;20060;-75
2022/01/18 05:39:51;;;;;;;11.45;7.15;;;6.90;96.70;;;;;;5080286;28;20047;-75
2022/01/18 05:42:20;;;;;;;11.82;7.22;;;6.90;96.70;;;;;;5064826;28;20041;-74
2022/01/18 05:44:49;;;;;;;11.20;7.50;;;6.90;96.70;;;;;;5076703;28;20039;-75
2022/01/18 05:47:17;;;;;;;13.25;8.77;;;6.80;96.70;;;;;;5077480;28;20136;-74
2022/01/18 05:49:46;;;;;;;12.98;7.63;;;6.80;96.70;;;;;;5073835;28;20040;-74
2022/01/18 05:52:14;;;;;;;11.73;7.35;;;6.70;96.70;;;;;;5073721;28;20035;-74
2022/01/18 05:54:42;;;;;;;12.75;7.95;;;6.70;96.70;;;;;;5068667;28;20037;-74
2022/01/18 05:57:10;;;;;;;10.57;7.20;;;6.60;96.70;;;;;;5076677;28;20041;-74
2022/01/18 05:59:45;;;;;;;10.82;8.93;;;6.70;96.70;;;;;;5079917;28;20135;-74
2022/01/18 06:02:36;;;;;;;10.30;7.30;;;6.70;96.70;;;;;;5077209;28;20040;-74
2022/01/18 06:07:52;;;;;;;11.00;7.55;;;6.60;96.70;;;;;;5072877;28;21011;-74
2022/01/18 06:10:20;;;;;;;10.60;7.25;;;6.60;96.70;;;;;;5075007;28;20064;-74
2022/01/18 06:12:48;;;;;;;11.07;7.63;;;6.60;96.70;;;;;;5083581;28;20044;-74
2022/01/18 06:15:18;;;;;;;11.90;7.70;;;6.60;96.70;;;;;;5076673;28;20052;-74
2022/01/18 06:17:47;;;;;;;13.38;7.43;;;6.50;96.70;;;;;;5076099;28;20554;-74
2022/01/18 06:20:15;;;;;;;11.50;7.50;;;6.30;96.70;;;;;;5079698;28;20032;-74
2022/01/18 06:22:43;;;;;;;8.50;6.70;;;6.30;96.70;;;;;;5085832;28;20042;-74
2022/01/18 06:25:11;;;;;;;11.50;7.10;;;6.30;96.70;;;;;;5077067;28;20356;-74
2022/01/18 06:27:39;;;;;;;11.50;7.30;;;6.30;96.70;;;;;;5080787;28;20079;-74
2022/01/18 06:30:10;;;;;;;11.90;7.30;;;6.40;96.70;;;;;;5066917;28;20048;-74
2022/01/18 06:32:40;;;;;;;10.85;6.95;;;6.40;96.70;;;;;;5078560;28;20540;-74
2022/01/18 06:35:10;;;;;;;9.50;6.68;;;6.30;96.70;;;;;;5078897;28;20075;-74
2022/01/18 06:37:39;;;;;;;10.63;6.72;;;6.30;96.70;;;;;;5069643;28;20106;-74
2022/01/18 06:40:09;;;;;;;10.23;6.78;;;6.30;96.70;;;;;;5074787;28;20432;-74
2022/01/18 06:42:37;;;;;;;11.60;6.88;;;6.40;96.70;;;;;;5074643;28;20464;-74
2022/01/18 06:45:06;;;;;;;10.48;7.05;;;6.20;96.70;;;;;;5073302;28;20109;-74
2022/01/18 06:47:35;;;;;;;13.10;7.22;;;6.20;96.70;;;;;;5056039;28;20101;-74
2022/01/18 06:50:10;;;;;;;10.38;7.05;;;6.20;96.70;;;;;;5081265;28;20143;-74
2022/01/18 06:52:41;;;;;;;11.15;6.43;;;6.20;96.70;;;;;;5079634;28;20821;-74
2022/01/18 06:55:11;;;;;;;8.80;6.32;;;6.20;96.70;;;;;;5079869;28;20372;-74
2022/01/18 06:57:40;;;;;;;11.52;6.65;;;6.20;96.70;;;;;;5072644;28;20127;-74
2022/01/18 07:00:09;;;;;;;11.32;7.68;;;6.10;96.70;;;;;;5078211;28;20115;-74
2022/01/18 07:02:37;;;;;;;12.95;7.32;;;6.10;96.70;;;;;;5078611;28;20048;-74
2022/01/18 07:05:07;;;;;;;13.48;8.25;;;6.10;96.70;;;;;;5076436;28;20044;-74
2022/01/18 07:07:36;;;;;;;10.35;7.65;;;6.00;96.70;;;;;;5055143;28;20133;-74
2022/01/18 07:10:05;;;;;;;14.20;7.68;;;6.00;96.70;;;;;;5071286;28;20044;-74
2022/01/18 07:12:34;;;;;;;19.52;9.73;;;6.10;96.70;;;;;;5080067;28;20126;-74
2022/01/18 07:15:06;;;;;;;12.48;8.10;;;6.10;96.70;;;;;;5079888;28;20135;-74
2022/01/18 07:17:34;;;;;;;13.13;7.57;;;6.10;96.70;;;;;;5073483;28;20997;-74
2022/01/18 07:20:04;;;;;;;13.27;9.15;;;6.00;96.70;;;;;;5076031;28;20036;-74
2022/01/18 07:22:34;;;;;;;11.55;7.50;;;5.90;96.70;;;;;;5074574;28;20044;-74
2022/01/18 07:25:10;;;;;;;12.05;7.40;;;5.90;96.70;;;;;;5066892;28;20494;-74
2022/01/18 07:27:48;;;;;;;12.05;8.10;;;5.90;96.70;;;;;;5084142;28;20048;-75
2022/01/18 07:30:30;;;;;;;14.00;8.45;;;5.90;96.70;;;;;;5082291;28;20055;-75
2022/01/18 07:32:59;;;;;;;14.25;8.93;;;5.90;96.70;;;;;;5069601;28;20052;-75
2022/01/18 07:35:28;;;;;;;11.93;9.35;;;5.90;96.70;;;;;;5078243;28;20039;-75
2022/01/18 07:38:00;;;;;;;11.98;7.90;;;5.90;96.70;;;;;;5071820;28;20048;-74
2022/01/18 07:40:29;;;;;;;12.88;8.10;;;5.90;96.70;;;;;;5074975;28;20045;-75
2022/01/18 07:43:00;;;;;;;15.50;8.40;;;5.90;96.70;;;;;;5080988;28;20435;-75
2022/01/18 07:45:29;;;;;;;15.90;9.85;;;5.80;96.70;;;;;;5074064;28;20113;-75
2022/01/18 07:47:57;;;;;;;15.80;9.13;;;5.90;96.70;;;;;;5071352;28;20036;-75
2022/01/18 07:50:27;;;;;;;19.10;10.23;;;5.90;96.70;;;;;;5072989;28;20445;-75
2022/01/18 07:52:57;;;;;;;18.08;9.40;;;5.90;96.70;;;;;;5075685;28;20558;-75
2022/01/18 07:55:25;;;;;;;15.93;9.40;;;6.00;96.70;;;;;;5077308;28;20351;-75
2022/01/18 07:57:57;;;;;;;13.20;8.88;;;6.00;96.70;;;;;;5080799;28;20044;-75
2022/01/18 08:00:26;;;;;;;11.82;9.32;;;6.10;96.70;;;;;;5076465;28;20497;-74
2022/01/18 08:02:55;;;;;;;12.25;8.88;;;6.10;96.70;;;;;;5077068;28;20040;-74
2022/01/18 08:05:23;;;;;;;13.23;8.32;;;6.10;96.70;;;;;;5081576;28;20119;-74
2022/01/18 08:07:52;;;;;;;10.60;7.60;;;6.20;96.70;;;;;;5079998;28;20043;-76
2022/01/18 08:10:21;;;;;;;12.63;8.77;;;6.30;96.70;;;;;;5072772;28;20048;-75
2022/01/18 08:12:51;;;;;;;12.07;7.43;;;6.40;96.70;;;;;;5061328;28;20101;-80
2022/01/18 08:15:21;;;;;;;14.27;8.75;;;6.50;96.70;;;;;;5073774;28;20048;-78
2022/01/18 08:17:53;;;;;;;10.45;8.05;;;6.60;96.70;;;;;;5075536;28;20036;-79
2022/01/18 08:20:21;;;;;;;18.08;12.82;;;6.60;96.70;;;;;;5080108;28;20150;-74
2022/01/18 08:22:49;;;;;;;18.52;12.63;;;6.60;96.70;;;;;;5082383;28;20048;-74
2022/01/18 08:25:18;;;;;;;31.27;21.25;;;6.70;96.70;;;;;;5071208;28;20529;-74
2022/01/18 08:27:48;;;;;;;24.73;15.77;;;6.80;96.70;;;;;;5082793;28;20637;-77
2022/01/18 08:30:17;;;;;;;20.75;13.93;;;6.80;96.70;;;;;;5073270;28;20056;-74
2022/01/18 08:32:45;;;;;;;19.98;11.93;;;6.90;96.70;;;;;;5083446;28;20040;-74
2022/01/18 08:35:13;;;;;;;16.90;11.18;;;6.90;96.70;;;;;;5076720;28;20040;-74
2022/01/18 08:37:41;;;;;;;17.25;11.05;;;6.90;96.70;;;;;;5079971;28;20119;-74
2022/01/18 08:40:10;;;;;;;16.10;10.68;;;7.00;96.70;;;;;;5062464;28;20094;-74
2022/01/18 08:42:38;;;;;;;18.13;10.65;;;7.00;96.70;;;;;;5081756;28;20505;-74
2022/01/18 08:45:09;;;;;;;16.98;9.93;;;7.00;96.70;;;;;;5081057;28;20052;-74
2022/01/18 08:47:37;;;;;;;12.70;9.10;;;7.00;96.70;;;;;;5081607;28;20482;-73
2022/01/18 08:50:07;;;;;;;14.90;9.27;;;7.00;96.70;;;;;;5073820;28;20086;-73
2022/01/18 08:52:35;;;;;;;11.63;8.00;;;7.10;96.70;;;;;;5075194;28;20123;-73
2022/01/18 08:55:04;;;;;;;11.00;9.13;;;7.20;96.70;;;;;;5077417;28;20093;-73
2022/01/18 08:57:33;;;;;;;12.68;9.23;;;7.20;96.70;;;;;;5106059;27;20048;-74
2022/01/18 09:00:01;;;;;;;11.52;9.48;;;7.30;96.70;;;;;;5072937;28;20522;-74
2022/01/18 09:02:30;;;;;;;11.15;9.15;;;7.40;96.70;;;;;;5074269;28;20452;-76
2022/01/18 09:04:59;;;;;;;12.73;9.30;;;7.50;96.70;;;;;;5075600;28;20533;-74
2022/01/18 09:07:27;;;;;;;11.40;9.48;;;7.70;96.70;;;;;;5073781;28;20040;-78
2022/01/18 09:10:03;;;;;;;12.48;9.38;;;7.70;96.70;;;;;;5093928;28;20043;-76
2022/01/18 09:12:31;;;;;;;15.23;9.85;;;7.80;96.70;;;;;;5057515;28;20585;-77
2022/01/18 09:15:00;;;;;;;14.93;10.02;;;7.80;96.70;;;;;;5072640;28;20068;-74
2022/01/18 09:17:31;;;;;;;13.00;9.90;;;7.90;96.70;;;;;;5076488;28;20533;-76
2022/01/18 09:20:05;;;;;;;12.80;9.32;;;8.10;96.70;;;;;;5056435;28;20512;-77
2022/01/18 09:22:38;;;;;;;13.18;9.43;;;8.10;96.70;;;;;;5069352;28;20078;-77
2022/01/18 09:25:10;;;;;;;14.77;10.80;;;8.20;96.70;;;;;;5072289;28;20238;-77
2022/01/18 09:27:40;;;;;;;13.32;10.80;;;8.30;96.70;;;;;;5074165;28;20532;-74
2022/01/18 09:30:10;;;;;;;15.35;11.23;;;8.40;96.70;;;;;;5074352;28;20048;-74
2022/01/18 09:32:45;;;;;;;13.55;10.57;;;8.50;96.70;;;;;;5071565;28;20055;-74
2022/01/18 09:35:14;;;;;;;13.70;10.48;;;8.60;96.70;;;;;;5069229;28;21133;-74
2022/01/18 09:37:45;;;;;;;13.45;10.82;;;8.60;96.70;;;;;;5075494;28;20086;-74
2022/01/18 09:40:18;;;;;;;11.88;9.98;;;8.70;96.70;;;;;;5077997;28;20490;-75
2022/01/18 09:42:47;;;;;;;14.70;10.75;;;8.90;96.70;;;;;;5067884;28;20511;-77
2022/01/18 09:45:16;;;;;;;12.23;10.23;;;9.00;96.70;;;;;;5067807;28;20043;-73
2022/01/18 09:47:51;;;;;;;17.27;10.43;;;9.10;96.70;;;;;;5070753;28;20590;-75
2022/01/18 09:50:21;;;;;;;16.23;11.52;;;9.10;96.70;;;;;;5078713;28;20040;-74
2022/01/18 09:52:54;;;;;;;16.73;11.63;;;9.20;96.70;;;;;;5074902;28;20044;-74
2022/01/18 09:55:25;;;;;;;14.70;10.68;;;9.20;96.70;;;;;;5076560;28;20125;-74
2022/01/18 09:57:53;;;;;;;13.45;11.25;;;9.30;96.70;;;;;;5077488;28;20281;-75
2022/01/18 10:00:25;;;;;;;16.08;11.63;;;9.40;96.70;;;;;;5068775;28;20055;-74
2022/01/18 10:02:56;;;;;;;15.43;12.35;;;9.50;96.70;;;;;;5067431;28;20040;-75
2022/01/18 10:05:28;;;;;;;16.95;12.35;;;9.60;96.70;;;;;;5077688;28;20726;-74
2022/01/18 10:07:59;;;;;;;15.23;12.15;;;9.70;96.70;;;;;;5073864;28;20052;-74
2022/01/18 10:10:39;;;;;;;18.25;13.88;;;9.70;96.70;;;;;;5080764;28;20121;-74
2022/01/18 10:13:14;;;;;;;18.48;13.70;;;9.90;96.70;;;;;;5075017;28;20630;-74
2022/01/18 10:15:58;;;;;;;17.95;13.15;;;9.90;96.70;;;;;;5071254;28;20127;-74
2022/01/18 10:18:45;;;;;;;19.02;13.70;;;10.10;96.70;;;;;;5075666;28;20042;-76
2022/01/18 10:21:23;;;;;;;18.08;13.20;;;10.10;96.70;;;;;;5072592;28;20510;-75
2022/01/18 10:24:08;;;;;;;17.90;13.82;;;10.20;96.70;;;;;;5076678;28;20578;-76
2022/01/18 10:26:40;;;;;;;18.27;14.63;;;10.20;96.70;;;;;;5076617;28;20052;-74
2022/01/18 10:29:09;;;;;;;18.40;14.77;;;10.30;96.70;;;;;;5077176;28;20525;-74
2022/01/18 10:32:09;;;;;;;18.85;15.63;;;10.40;96.70;;;;;;5077790;28;20143;-74
2022/01/18 10:37:08;;;;;;;21.90;17.25;;;10.50;96.70;;;;;;5074182;28;20119;-74
2022/01/18 10:39:40;;;;;;;26.77;18.65;;;10.60;96.70;;;;;;5082776;28;20048;-75
2022/01/18 10:42:20;;;;;;;27.38;19.58;;;10.70;96.70;;;;;;5062396;28;20584;-78
2022/01/18 10:44:57;;;;;;;21.80;16.67;;;10.70;96.70;;;;;;5074241;28;20081;-75
2022/01/18 10:47:26;;;;;;;22.98;17.48;;;10.70;96.70;;;;;;5081856;28;20530;-74
2022/01/18 10:50:05;;;;;;;24.52;17.95;;;10.80;96.70;;;;;;5090763;28;20520;-75
2022/01/18 10:52:33;;;;;;;25.58;18.25;;;10.90;96.70;;;;;;5080709;28;20452;-74
2022/01/18 10:55:02;;;;;;;24.25;17.20;;;11.00;96.70;;;;;;5071967;28;20496;-75
2022/01/18 10:57:36;;;;;;;24.05;18.55;;;11.10;96.70;;;;;;5077785;28;20044;-75
2022/01/18 11:00:10;;;;;;;24.08;17.33;;;11.20;96.70;;;;;;5075767;28;20382;-75
2022/01/18 11:02:40;;;;;;;22.83;17.17;;;11.20;96.70;;;;;;5072289;28;20064;-75
2022/01/18 11:05:15;;;;;;;22.48;17.20;;;11.30;96.70;;;;;;5074864;28;20480;-74
2022/01/18 11:07:45;;;;;;;21.55;17.23;;;11.40;96.70;;;;;;5074553;28;20105;-74
2022/01/18 11:10:15;;;;;;;21.75;17.83;;;11.50;96.70;;;;;;5070197;28;20339;-74
2022/01/18 11:12:48;;;;;;;23.70;17.33;;;11.50;96.70;;;;;;5071688;28;20513;-75
2022/01/18 11:15:21;;;;;;;17.95;14.93;;;11.60;96.70;;;;;;5080981;28;20044;-74
2022/01/18 11:17:57;;;;;;;19.45;15.32;;;11.70;96.70;;;;;;5078470;28;20047;-74
2022/01/18 11:20:28;;;;;;;18.95;13.70;;;11.70;96.70;;;;;;5083882;28;20057;-74
2022/01/18 11:22:57;;;;;;;15.70;13.60;;;11.70;96.70;;;;;;5077538;28;20044;-74
2022/01/18 11:25:29;;;;;;;16.42;14.05;;;11.80;96.70;;;;;;5054059;28;20048;-74
2022/01/18 11:27:59;;;;;;;19.23;14.13;;;11.80;96.70;;;;;;5101552;27;20916;-74
2022/01/18 11:30:31;;;;;;;18.40;13.70;;;12.00;96.70;;;;;;5070737;28;20048;-74
2022/01/18 11:33:02;;;;;;;17.42;12.93;;;12.00;96.70;;;;;;5078293;28;20504;-75
2022/01/18 11:35:42;;;;;;;16.48;13.55;;;12.10;96.70;;;;;;5082711;28;20046;-75
2022/01/18 11:38:19;;;;;;;16.50;13.23;;;12.20;96.70;;;;;;5081768;28;20466;-75
2022/01/18 11:40:49;;;;;;;17.65;13.23;;;12.40;96.70;;;;;;5081306;28;20089;-75
2022/01/18 11:43:34;;;;;;;15.32;12.07;;;12.50;96.70;;;;;;5074280;28;20560;-75
2022/01/18 11:46:20;;;;;;;15.95;12.60;;;12.60;96.70;;;;;;5072961;28;20049;-75
2022/01/18 11:48:50;;;;;;;14.30;12.00;;;12.60;96.70;;;;;;5067782;28;20060;-75
2022/01/18 11:51:34;;;;;;;13.40;10.93;;;12.70;96.70;;;;;;5080911;28;20120;-75
2022/01/18 11:54:23;;;;;;;13.23;11.27;;;12.80;96.70;;;;;;5075888;28;20036;-75
2022/01/18 11:56:51;;;;;;;15.65;11.00;;;12.80;96.70;;;;;;5080177;28;20059;-75
2022/01/18 11:59:21;;;;;;;13.05;9.70;;;12.90;96.70;;;;;;5077965;28;20151;-75
2022/01/18 12:01:51;;;;;;;11.60;9.35;;;12.90;96.70;;;;;;5074597;28;20127;-75
2022/01/18 12:05:06;;;;;;;12.07;9.75;;;13.10;96.70;;;;;;5076407;28;20260;-74
2022/01/18 12:07:51;;;;;;;13.70;9.15;;;13.10;96.70;;;;;;4992952;28;20478;-75
2022/01/18 12:10:45;;;;;;;11.88;8.93;;;13.10;96.70;;;;;;5077500;28;20041;-74
2022/01/18 12:13:29;;;;;;;13.55;9.05;;;13.30;96.70;;;;;;5072799;28;20063;-74
2022/01/18 12:15:59;;;;;;;16.17;11.25;;;13.30;96.70;;;;;;5074011;28;20525;-74
2022/01/18 12:18:29;;;;;;;15.88;10.52;;;13.30;96.70;;;;;;5074788;28;20048;-74
2022/01/18 12:20:59;;;;;;;16.80;12.48;;;13.30;96.70;;;;;;5067642;28;20040;-74
2022/01/18 12:23:41;;;;;;;14.75;9.93;;;13.40;96.70;;;;;;5073294;28;20048;-74
2022/01/18 12:32:07;;;;;;;13.38;9.23;;;13.70;96.70;;;;;;5075694;28;20054;-75
2022/01/18 12:34:44;;;;;;;18.42;16.42;;;13.90;96.70;;;;;;5072861;28;20047;-74
2022/01/18 12:37:30;;;;;;;;;;;13.90;96.70;;;;;;5080500;28;20128;-74
2022/01/18 12:45:11;;;;;;;12.05;9.40;;;14.30;96.70;;;;;;5070041;28;20032;-74
2022/01/18 12:47:42;;;;;;;10.77;8.52;;;14.40;96.70;;;;;;5068727;28;20048;-74
2022/01/18 12:50:11;;;;;;;11.10;8.70;;;14.50;96.70;;;;;;5075480;28;20044;-75
2022/01/18 12:52:47;;;;;;;10.82;7.85;;;14.50;96.70;;;;;;5069349;28;20052;-74
2022/01/18 12:55:35;;;;;;;12.13;8.25;;;14.40;96.70;;;;;;5070587;28;20116;-74
2022/01/18 12:58:07;;;;;;;12.65;8.45;;;14.40;96.70;;;;;;5075844;28;20047;-74
2022/01/18 13:00:44;;;;;;;11.82;9.55;;;14.60;96.70;;;;;;5072916;28;20152;-74
2022/01/18 13:03:24;;;;;;;14.90;10.77;;;14.70;96.70;;;;;;5090003;27;20052;-74
2022/01/18 13:05:54;;;;;;;19.10;15.30;;;14.80;96.70;;;;;;5077020;28;20054;-74
2022/01/18 13:08:29;;;;;;;14.25;9.38;;;14.80;96.70;;;;;;5078780;28;20075;-74
2022/01/18 13:10:59;;;;;;;16.15;10.32;;;14.80;96.70;;;;;;5077254;28;20126;-74
2022/01/18 13:13:31;;;;;;;13.48;9.90;;;14.90;96.70;;;;;;5077544;28;20140;-74
2022/01/18 13:27:34;;;;;;;8.57;6.70;;;15.10;96.70;;;;;;5077752;28;20062;-74
2022/01/18 13:30:14;;;;;;;9.70;6.18;;;15.10;96.70;;;;;;5083344;28;20050;-74
2022/01/18 13:32:43;;;;;;;9.10;6.47;;;15.20;96.70;;;;;;5074468;28;20040;-74
2022/01/18 13:35:13;;;;;;;8.38;6.45;;;15.10;96.70;;;;;;5073388;28;20048;-74
2022/01/18 13:37:41;;;;;;;7.93;6.45;;;15.10;96.70;;;;;;5068681;28;20062;-74
2022/01/18 13:40:14;;;;;;;11.82;7.20;;;15.20;96.70;;;;;;5072476;28;20090;-74
2022/01/18 13:42:48;;;;;;;11.07;7.88;;;15.20;96.70;;;;;;5075897;28;20048;-76
2022/01/18 13:45:19;;;;;;;7.40;6.45;;;15.20;96.70;;;;;;5069538;28;20040;-74
2022/01/18 13:47:59;;;;;;;10.57;6.85;;;15.30;96.70;;;;;;5077777;28;20051;-74
2022/01/18 13:50:47;;;;;;;9.45;5.97;;;15.30;96.70;;;;;;5074604;28;20032;-74
2022/01/18 13:53:18;;;;;;;9.05;6.10;;;15.20;96.70;;;;;;5070177;28;20050;-74
2022/01/18 13:55:49;;;;;;;9.73;6.28;;;15.10;96.70;;;;;;5075459;28;20501;-74
2022/01/18 13:58:25;;;;;;;9.40;6.07;;;14.90;96.70;;;;;;5076490;28;20457;-74
2022/01/18 14:01:05;;;;;;;9.15;5.80;;;14.70;96.70;;;;;;5074678;28;20052;-74
2022/01/18 14:03:35;;;;;;;9.07;6.03;;;14.60;96.70;;;;;;5076130;28;20044;-74
2022/01/18 14:06:04;;;;;;;10.90;7.07;;;14.50;96.70;;;;;;5080468;28;20048;-74
2022/01/18 14:08:35;;;;;;;12.70;6.82;;;14.30;96.70;;;;;;5080434;28;20063;-74
2022/01/18 14:11:07;;;;;;;7.60;6.15;;;14.20;96.70;;;;;;5061983;28;20520;-75
2022/01/18 14:13:38;;;;;;;9.30;6.57;;;14.20;96.70;;;;;;5079004;28;20041;-74
2022/01/18 14:16:19;;;;;;;9.55;6.30;;;14.00;96.70;;;;;;5075826;28;20516;-74
2022/01/18 14:18:56;;;;;;;7.40;6.10;;;14.00;96.70;;;;;;5075734;28;20040;-74
2022/01/18 14:21:27;;;;;;;7.35;6.43;;;13.90;96.70;;;;;;5077399;28;20121;-74
2022/01/18 14:24:13;;;;;;;12.23;7.35;;;13.90;96.70;;;;;;5077810;28;20039;-74
2022/01/18 14:26:57;;;;;;;13.45;6.38;;;13.80;96.70;;;;;;5071151;28;20066;-75
2022/01/18 14:29:28;;;;;;;10.18;6.90;;;13.80;96.70;;;;;;5068536;28;20048;-74
2022/01/18 14:31:59;;;;;;;13.10;6.68;;;13.70;96.70;;;;;;5083024;28;20599;-74
2022/01/18 14:34:33;;;;;;;8.18;6.47;;;13.70;96.70;;;;;;5080438;28;20044;-74
2022/01/18 14:37:08;;;;;;;10.52;7.35;;;13.70;96.70;;;;;;5075735;28;20538;-75
2022/01/18 14:39:51;;;;;;;9.80;7.70;;;13.60;96.70;;;;;;5076729;28;20538;-75
2022/01/18 14:42:19;;;;;;;11.70;7.78;;;13.60;96.70;;;;;;5072205;28;20409;-74
2022/01/18 14:45:01;;;;;;;12.65;8.45;;;13.60;96.70;;;;;;5077466;28;20055;-74
2022/01/18 14:47:30;;;;;;;10.80;8.15;;;13.50;96.70;;;;;;5080950;28;20040;-74
2022/01/18 14:50:04;;;;;;;11.93;8.13;;;13.50;96.70;;;;;;5076751;28;20047;-74